Time;durP1;ratioP1;P1;durP2;ratioP2;P2;SDS_P1;SDS_P2;PMS_P1;PMS_P2;Temp;Humidity;BMP_temperature;BMP_pressure;BME280_temperature;BME280_humidity;BME280_pressure;Samples;Min_cycle;Max_cycle;Signal;HPM_P1;HPM_P2
2022/03/02 00:00:06;;;;;;;;;10.60;10.60;;;;;4.12;55.23;100926.34;5096335;28;8818;-63
2022/03/02 00:02:34;;;;;;;;;13.40;12.00;;;;;4.08;54.78;100936.16;5096131;28;8833;-63
2022/03/02 00:05:02;;;;;;;;;12.40;11.60;;;;;4.05;55.45;100935.41;5096286;28;8870;-63
2022/03/02 00:07:29;;;;;;;;;7.00;6.20;;;;;4.01;54.71;100939.03;5096264;28;8844;-64
2022/03/02 00:09:58;;;;;;;;;3.00;2.60;;;;;3.96;55.39;100939.22;5095511;28;8832;-63
2022/03/02 00:12:25;;;;;;;;;3.60;3.60;;;;;3.91;55.06;100929.78;5094746;28;8829;-63
2022/03/02 00:14:53;;;;;;;;;11.40;10.40;;;;;3.85;55.60;100937.91;5105816;28;8823;-63
2022/03/02 00:17:21;;;;;;;;;8.80;6.00;;;;;3.78;55.34;100928.50;5115639;28;8881;-63
2022/03/02 00:19:49;;;;;;;;;10.00;9.60;;;;;3.71;55.86;100940.16;5116545;28;8831;-63
2022/03/02 00:22:18;;;;;;;;;11.20;9.00;;;;;3.66;55.94;100941.25;5116632;28;8847;-63
2022/03/02 00:24:50;;;;;;;;;14.80;13.40;;;;;3.60;56.56;100930.94;5116453;28;8844;-63
2022/03/02 00:27:18;;;;;;;;;8.60;8.60;;;;;3.55;56.04;100936.34;5116687;28;8831;-63
2022/03/02 00:29:46;;;;;;;;;9.00;9.00;;;;;3.51;56.33;100933.91;5116942;28;8834;-64
2022/03/02 00:32:14;;;;;;;;;10.00;9.20;;;;;3.47;56.10;100925.25;5116299;28;8897;-63
2022/03/02 00:34:41;;;;;;;;;10.40;9.20;;;;;3.43;56.24;100934.19;5116012;28;8838;-63
2022/03/02 00:37:09;;;;;;;;;9.20;9.00;;;;;3.40;56.28;100929.00;5115908;28;8835;-63
2022/03/02 00:39:39;;;;;;;;;12.00;10.80;;;;;3.36;56.36;100923.91;5116255;28;8851;-63
2022/03/02 00:42:07;;;;;;;;;10.00;8.60;;;;;3.32;56.69;100915.25;5097237;28;8953;-64
2022/03/02 00:44:34;;;;;;;;;6.40;6.40;;;;;3.31;56.27;100917.94;5095485;28;8861;-63
2022/03/02 00:47:02;;;;;;;;;6.60;6.60;;;;;3.30;56.61;100919.72;5095909;28;8861;-65
2022/03/02 00:49:32;;;;;;;;;6.20;6.20;;;;;3.30;56.58;100921.47;5095426;28;8915;-63
2022/03/02 00:51:59;;;;;;;;;4.00;3.60;;;;;3.31;56.74;100912.66;5094409;28;8939;-64
2022/03/02 00:54:27;;;;;;;;;7.40;4.00;;;;;3.30;56.50;100911.81;5095895;28;8871;-63
2022/03/02 00:56:55;;;;;;;;;6.00;5.60;;;;;3.31;55.93;100907.41;5095376;28;8830;-63
2022/03/02 00:59:23;;;;;;;;;9.40;8.60;;;;;3.33;55.86;100906.44;5095001;28;8822;-63
2022/03/02 01:01:51;;;;;;;;;9.00;6.80;;;;;3.36;56.25;100895.81;5095388;28;8855;-63
2022/03/02 01:04:19;;;;;;;;;4.40;4.40;;;;;3.36;56.05;100898.47;5095215;28;8838;-63
2022/03/02 01:06:46;;;;;;;;;7.60;4.60;;;;;3.38;55.93;100894.00;5095362;28;8834;-63
2022/03/02 01:09:16;;;;;;;;;6.20;6.00;;;;;3.37;56.40;100892.28;5094856;28;8834;-63
2022/03/02 01:11:43;;;;;;;;;7.00;7.00;;;;;3.37;56.14;100889.66;5110138;28;8950;-63
2022/03/02 01:14:11;;;;;;;;;6.40;5.60;;;;;3.40;56.19;100880.78;5114389;28;8828;-63
2022/03/02 01:16:38;;;;;;;;;6.40;6.00;;;;;3.42;56.36;100877.16;5114320;28;8890;-63
2022/03/02 01:19:07;;;;;;;;;4.00;3.80;;;;;3.46;56.42;100891.06;5115732;28;8839;-63
2022/03/02 01:21:34;;;;;;;;;7.40;7.00;;;;;3.46;55.90;100881.41;5115262;28;8844;-63
2022/03/02 01:24:02;;;;;;;;;6.20;6.00;;;;;3.47;56.21;100877.84;5115000;28;8824;-63
2022/03/02 01:26:30;;;;;;;;;6.20;4.40;;;;;3.48;55.84;100866.41;5115619;28;8897;-63
2022/03/02 01:28:58;;;;;;;;;2.20;2.20;;;;;3.47;55.77;100866.50;5114997;28;8942;-67
2022/03/02 01:31:26;;;;;;;;;1.00;0.60;;;;;3.45;55.52;100863.03;5115339;28;8930;-63
2022/03/02 01:33:53;;;;;;;;;7.80;7.20;;;;;3.41;56.10;100856.19;5115028;28;8823;-63
2022/03/02 01:36:21;;;;;;;;;7.80;6.60;;;;;3.39;55.87;100858.00;5115449;28;9481;-63
2022/03/02 01:38:49;;;;;;;;;3.80;3.80;;;;;3.35;56.35;100854.63;5115389;28;8843;-64
2022/03/02 01:41:17;;;;;;;;;4.80;4.80;;;;;3.34;56.12;100854.69;5102817;28;8833;-64
2022/03/02 01:43:45;;;;;;;;;9.40;7.00;;;;;3.31;55.90;100853.00;5093654;28;8906;-63
2022/03/02 01:46:14;;;;;;;;;9.60;7.80;;;;;3.26;56.08;100856.72;5094866;28;8956;-63
2022/03/02 01:48:42;;;;;;;;;5.60;5.00;;;;;3.20;56.62;100851.66;5094593;28;8842;-63
2022/03/02 01:51:09;;;;;;;;;8.20;7.80;;;;;3.14;56.63;100852.75;5094363;28;8932;-63
2022/03/02 01:53:37;;;;;;;;;6.80;6.00;;;;;3.07;57.06;100851.25;5094988;28;8838;-63
2022/03/02 01:56:05;;;;;;;;;8.00;6.60;;;;;3.03;56.70;100844.34;5094254;28;8833;-63
2022/03/02 01:58:33;;;;;;;;;4.40;3.60;;;;;3.01;56.62;100842.69;5094353;28;8938;-63
2022/03/02 02:01:01;;;;;;;;;13.80;9.40;;;;;2.95;56.45;100841.13;5094747;28;8850;-63
2022/03/02 02:03:28;;;;;;;;;4.00;4.00;;;;;2.89;57.13;100845.75;5096019;28;8837;-63
2022/03/02 02:05:56;;;;;;;;;4.40;4.00;;;;;2.86;57.05;100846.72;5097539;28;8822;-63
2022/03/02 02:08:24;;;;;;;;;5.60;5.20;;;;;2.80;57.47;100840.81;5098449;28;8850;-63
2022/03/02 02:10:52;;;;;;;;;4.80;4.80;;;;;2.79;57.90;100844.34;5106190;28;8812;-63
2022/03/02 02:13:19;;;;;;;;;4.40;4.40;;;;;2.77;57.28;100840.91;5119424;28;8843;-63
2022/03/02 02:15:47;;;;;;;;;3.00;1.00;;;;;2.73;57.43;100839.31;5118787;28;8857;-63
2022/03/02 02:18:15;;;;;;;;;3.00;2.20;;;;;2.69;57.17;100841.16;5119206;28;8855;-63
2022/03/02 02:20:43;;;;;;;;;7.80;7.00;;;;;2.68;57.81;100833.31;5119891;28;8816;-63
2022/03/02 02:23:10;;;;;;;;;6.20;6.00;;;;;2.67;57.88;100840.38;5119039;28;8844;-63
2022/03/02 02:25:38;;;;;;;;;6.00;6.00;;;;;2.67;57.61;100834.25;5118799;28;8974;-63
2022/03/02 02:28:06;;;;;;;;;7.80;7.40;;;;;2.66;57.63;100841.25;5119057;28;8832;-63
2022/03/02 02:30:34;;;;;;;;;5.60;4.40;;;;;2.66;57.52;100832.53;5118800;28;8832;-64
2022/03/02 02:33:02;;;;;;;;;4.00;4.00;;;;;2.66;57.82;100833.38;5118099;28;8832;-63
2022/03/02 02:35:30;;;;;;;;;4.40;4.00;;;;;2.68;57.32;100828.06;5118860;28;8870;-63
2022/03/02 02:37:57;;;;;;;;;3.00;3.00;;;;;2.67;57.63;100827.22;5118004;28;8950;-64
2022/03/02 02:40:25;;;;;;;;;4.00;4.00;;;;;2.68;57.35;100821.06;5114215;28;8826;-63
2022/03/02 02:42:53;;;;;;;;;5.60;5.60;;;;;2.68;57.67;100818.44;5099044;28;8814;-63
2022/03/02 02:45:21;;;;;;;;;7.40;6.80;;;;;2.66;57.83;100814.13;5098146;28;8938;-63
2022/03/02 02:47:49;;;;;;;;;5.40;4.80;;;;;2.59;58.09;100816.06;5098274;28;8875;-63
2022/03/02 02:50:17;;;;;;;;;5.60;3.80;;;;;2.51;57.52;100815.47;5097865;28;8821;-63
2022/03/02 02:52:44;;;;;;;;;4.00;4.00;;;;;2.45;57.86;100809.56;5099012;28;8845;-63
2022/03/02 02:55:12;;;;;;;;;4.20;4.20;;;;;2.40;58.35;100808.84;5097297;28;9549;-63
2022/03/02 02:57:40;;;;;;;;;6.60;6.60;;;;;2.34;58.47;100812.56;5097537;28;8941;-63
2022/03/02 03:00:08;;;;;;;;;6.20;6.20;;;;;2.32;58.34;100801.25;5097907;28;8953;-64
2022/03/02 03:02:35;;;;;;;;;4.80;4.80;;;;;2.31;58.19;100796.03;5097442;28;9519;-64
2022/03/02 03:05:04;;;;;;;;;6.60;5.20;;;;;2.35;58.61;100805.53;5097948;28;9688;-63
2022/03/02 03:07:31;;;;;;;;;3.20;3.20;;;;;2.38;57.86;100805.44;5097639;28;8829;-64
2022/03/02 03:09:59;;;;;;;;;5.60;5.20;;;;;2.41;58.24;100803.56;5097551;28;8900;-63
2022/03/02 03:12:27;;;;;;;;;4.00;4.00;;;;;2.42;58.48;100802.66;5078061;28;8974;-63
2022/03/02 03:14:55;;;;;;;;;7.00;6.60;;;;;2.45;57.94;100796.44;5075914;28;8832;-63
2022/03/02 03:17:22;;;;;;;;;3.60;3.60;;;;;2.47;58.49;100791.97;5077308;28;8978;-63
2022/03/02 03:19:50;;;;;;;;;5.60;4.40;;;;;2.50;58.35;100787.47;5077189;28;8848;-63
2022/03/02 03:22:18;;;;;;;;;6.20;6.20;;;;;2.56;58.30;100794.31;5077363;28;8844;-67
2022/03/02 03:24:45;;;;;;;;;5.40;5.20;;;;;2.59;58.13;100794.22;5077203;28;8840;-63
2022/03/02 03:27:13;;;;;;;;;4.00;4.00;;;;;2.61;57.95;100793.25;5076885;28;8832;-63
2022/03/02 03:29:42;;;;;;;;;8.00;6.60;;;;;2.64;57.39;100789.66;5077034;28;8832;-63
2022/03/02 03:32:09;;;;;;;;;7.20;6.60;;;;;2.66;57.37;100791.31;5076552;28;8863;-68
2022/03/02 03:34:37;;;;;;;;;7.20;7.20;;;;;2.65;57.37;100794.84;5077460;28;8858;-63
2022/03/02 03:37:05;;;;;;;;;3.80;3.80;;;;;2.65;57.98;100799.28;5077022;28;8828;-63
2022/03/02 03:39:33;;;;;;;;;6.80;6.80;;;;;2.63;57.76;100796.69;5076456;28;8931;-63
2022/03/02 03:42:00;;;;;;;;;4.80;4.80;;;;;2.61;57.75;100797.63;5115915;28;8812;-63
2022/03/02 03:44:28;;;;;;;;;6.20;4.80;;;;;2.59;58.06;100796.84;5117246;28;8819;-63
2022/03/02 03:46:56;;;;;;;;;4.40;4.00;;;;;2.55;57.78;100796.09;5117115;28;8842;-65
2022/03/02 03:49:24;;;;;;;;;6.00;5.60;;;;;2.49;58.09;100793.66;5117575;28;8843;-63
2022/03/02 03:51:52;;;;;;;;;6.20;5.40;;;;;2.47;58.22;100795.47;5117152;28;8908;-63
2022/03/02 03:54:19;;;;;;;;;4.00;3.60;;;;;2.43;58.58;100790.38;5117209;28;9544;-63
2022/03/02 03:56:47;;;;;;;;;3.80;3.80;;;;;2.41;58.75;100792.22;5117472;28;8812;-63
2022/03/02 03:59:15;;;;;;;;;5.60;5.20;;;;;2.38;58.41;100793.16;5117115;28;8828;-63
2022/03/02 04:01:43;;;;;;;;;4.00;3.40;;;;;2.36;58.50;100787.06;5117129;28;8846;-63
2022/03/02 04:04:10;;;;;;;;;4.00;4.00;;;;;2.35;58.51;100793.25;5117252;28;8904;-63
2022/03/02 04:06:38;;;;;;;;;4.40;3.80;;;;;2.35;58.43;100785.38;5116445;28;8979;-65
2022/03/02 04:09:07;;;;;;;;;7.00;7.00;;;;;2.37;58.94;100791.44;5117221;28;8966;-63
2022/03/02 04:11:35;;;;;;;;;3.80;3.20;;;;;2.35;58.36;100788.00;5100750;28;8814;-68
2022/03/02 04:14:02;;;;;;;;;4.00;4.00;;;;;2.34;58.66;100778.41;5095952;28;8859;-65
2022/03/02 04:16:30;;;;;;;;;5.60;3.80;;;;;2.33;58.14;100781.06;5095684;28;9005;-64
2022/03/02 04:18:58;;;;;;;;;7.80;6.60;;;;;2.30;58.25;100774.16;5094014;28;8837;-64
2022/03/02 04:21:26;;;;;;;;;2.80;1.80;;;;;2.27;58.31;100766.38;5095868;28;8854;-64
2022/03/02 04:23:54;;;;;;;;;6.00;6.00;;;;;2.24;59.10;100777.00;5096169;28;9671;-64
2022/03/02 04:26:21;;;;;;;;;3.40;3.40;;;;;2.23;58.64;100772.66;5095988;28;8842;-63
2022/03/02 04:28:49;;;;;;;;;5.60;5.60;;;;;2.22;59.02;100768.31;5095964;28;8840;-63
2022/03/02 04:31:17;;;;;;;;;5.20;4.40;;;;;2.21;58.53;100766.56;5096170;28;8834;-64
2022/03/02 04:33:45;;;;;;;;;4.00;3.40;;;;;2.21;59.04;100761.31;5095927;28;8838;-64
2022/03/02 04:36:12;;;;;;;;;4.00;4.00;;;;;2.20;59.25;100751.72;5095297;28;8836;-64
2022/03/02 04:38:42;;;;;;;;;6.40;6.40;;;;;2.19;58.86;100751.78;5094846;28;8858;-64
2022/03/02 04:41:10;;;;;;;;;5.20;4.80;;;;;2.14;59.44;100758.94;5106395;28;9477;-63
2022/03/02 04:43:38;;;;;;;;;4.80;4.80;;;;;2.09;59.15;100766.97;5115566;28;8838;-63
2022/03/02 04:46:06;;;;;;;;;4.40;3.80;;;;;2.02;59.37;100757.56;5116016;28;8984;-64
2022/03/02 04:48:34;;;;;;;;;6.40;4.40;;;;;1.97;59.27;100764.72;5115672;28;8828;-64
2022/03/02 04:51:02;;;;;;;;;5.60;4.00;;;;;1.94;59.13;100763.97;5116220;28;8861;-64
2022/03/02 04:53:30;;;;;;;;;5.20;5.20;;;;;1.91;59.57;100757.03;5116340;28;9531;-64
2022/03/02 04:55:57;;;;;;;;;4.20;3.60;;;;;1.90;59.22;100755.31;5115533;28;8826;-63
2022/03/02 04:58:25;;;;;;;;;3.20;3.00;;;;;1.90;59.10;100749.25;5115333;28;8828;-64
2022/03/02 05:00:53;;;;;;;;;4.80;4.80;;;;;1.89;59.61;100753.63;5115785;28;8928;-63
2022/03/02 05:03:21;;;;;;;;;5.60;5.60;;;;;1.86;59.67;100748.47;5116125;28;8867;-63
2022/03/02 05:05:49;;;;;;;;;9.00;9.00;;;;;1.83;59.40;100743.28;5115698;28;8946;-64
2022/03/02 05:08:17;;;;;;;;;0.00;0.00;;;;;1.81;59.71;100752.16;5115875;28;8873;-63
2022/03/02 05:10:44;;;;;;;;;5.60;4.40;;;;;1.76;59.89;100741.78;5104292;28;8810;-63
2022/03/02 05:13:13;;;;;;;;;5.60;4.00;;;;;1.74;59.87;100742.75;5095008;28;8854;-63
2022/03/02 05:15:41;;;;;;;;;6.00;6.00;;;;;1.71;59.48;100745.47;5095037;28;8833;-63
2022/03/02 05:18:09;;;;;;;;;6.00;6.00;;;;;1.66;59.63;100740.34;5094102;28;8840;-63
2022/03/02 05:20:37;;;;;;;;;5.40;5.40;;;;;1.63;59.51;100748.34;5094846;28;8837;-63
2022/03/02 05:23:04;;;;;;;;;6.00;6.00;;;;;1.61;60.27;100747.50;5094781;28;8878;-63
2022/03/02 05:25:32;;;;;;;;;6.20;6.00;;;;;1.61;60.24;100759.78;5095577;28;8838;-63
2022/03/02 05:28:00;;;;;;;;;1.00;1.00;;;;;1.58;60.00;100750.22;5094045;28;8854;-63
2022/03/02 05:30:28;;;;;;;;;8.20;6.20;;;;;1.57;60.18;100745.88;5093987;28;8859;-64
2022/03/02 05:32:55;;;;;;;;;6.00;3.80;;;;;1.56;59.87;100745.94;5093812;28;8830;-63
2022/03/02 05:35:23;;;;;;;;;3.40;1.00;;;;;1.56;60.21;100744.16;5093918;28;8860;-63
2022/03/02 05:37:51;;;;;;;;;6.60;6.00;;;;;1.58;59.61;100741.47;5104417;28;8824;-64
2022/03/02 05:40:19;;;;;;;;;6.00;4.00;;;;;1.59;59.79;100744.06;5114665;28;8849;-64
2022/03/02 05:42:51;;;;;;;;;6.60;6.60;;;;;1.60;59.61;100732.66;5115100;28;8832;-64
2022/03/02 05:45:19;;;;;;;;;5.40;5.20;;;;;1.61;60.05;100736.16;5114956;28;8969;-64
2022/03/02 05:47:47;;;;;;;;;6.40;6.40;;;;;1.61;59.50;100738.78;5115047;28;8855;-63
2022/03/02 05:50:14;;;;;;;;;8.60;7.40;;;;;1.62;59.78;100733.50;5104386;28;8814;-63
2022/03/02 05:52:42;;;;;;;;;3.00;2.60;;;;;1.61;60.09;100738.78;5094021;28;8846;-63
2022/03/02 05:55:10;;;;;;;;;6.00;4.80;;;;;1.59;59.80;100736.19;5093752;28;8996;-63
2022/03/02 05:57:38;;;;;;;;;7.00;4.20;;;;;1.55;59.20;100737.22;5093387;28;8907;-63
2022/03/02 06:00:06;;;;;;;;;7.00;7.00;;;;;1.51;59.94;100735.56;5100111;28;9624;-63
2022/03/02 06:02:33;;;;;;;;;0.60;0.00;;;;;1.49;59.91;100742.63;5100401;28;8818;-63
2022/03/02 06:05:01;;;;;;;;;5.60;5.20;;;;;1.47;60.38;100743.59;5093796;28;9716;-64
2022/03/02 06:07:29;;;;;;;;;3.60;3.60;;;;;1.41;60.15;100734.16;5093358;28;8957;-63
2022/03/02 06:09:57;;;;;;;;;6.40;6.40;;;;;1.38;60.60;100734.22;5091313;28;8818;-63
2022/03/02 06:12:25;;;;;;;;;5.60;3.80;;;;;1.34;60.13;100731.72;5090964;28;8830;-63
2022/03/02 06:14:52;;;;;;;;;3.20;3.20;;;;;1.31;60.19;100737.91;5090811;28;8852;-63
2022/03/02 06:17:20;;;;;;;;;4.00;3.80;;;;;1.30;60.70;100736.22;5090502;28;8837;-63
2022/03/02 06:19:49;;;;;;;;;6.00;5.20;;;;;1.30;60.53;100738.00;5090141;28;8964;-63
2022/03/02 06:22:17;;;;;;;;;6.00;6.00;;;;;1.29;60.91;100741.53;5090848;28;8873;-63
2022/03/02 06:24:48;;;;;;;;;7.00;6.20;;;;;1.27;60.19;100736.31;5092619;28;8834;-63
2022/03/02 06:27:21;;;;;;;;;3.20;3.00;;;;;1.26;60.83;100739.84;5092978;28;8842;-63
2022/03/02 06:29:49;;;;;;;;;5.40;5.40;;;;;1.24;60.78;100736.41;5092427;28;8860;-63
2022/03/02 06:32:17;;;;;;;;;4.60;4.60;;;;;1.21;60.71;100741.72;5092116;28;8837;-63
2022/03/02 06:34:45;;;;;;;;;4.80;4.80;;;;;1.17;60.92;100744.50;5091439;28;9588;-63
2022/03/02 06:37:13;;;;;;;;;4.00;4.00;;;;;1.16;60.72;100750.63;5090701;28;9622;-63
2022/03/02 06:39:41;;;;;;;;;4.40;3.20;;;;;1.13;60.58;100741.09;5090239;28;9585;-63
2022/03/02 06:42:11;;;;;;;;;8.20;6.00;;;;;1.07;60.96;100738.63;5090344;28;8841;-63
2022/03/02 06:44:39;;;;;;;;;3.00;1.80;;;;;1.02;61.06;100747.53;5088040;28;8938;-63
2022/03/02 06:47:09;;;;;;;;;3.00;2.60;;;;;0.98;60.78;100752.03;5090460;28;8838;-63
2022/03/02 06:49:38;;;;;;;;;6.60;4.00;;;;;0.95;60.89;100754.75;5091699;28;8826;-63
2022/03/02 06:52:06;;;;;;;;;7.20;4.80;;;;;0.93;61.24;100759.13;5093718;28;8853;-63
2022/03/02 06:54:33;;;;;;;;;5.20;3.80;;;;;0.91;60.97;100755.72;5093324;28;8845;-64
2022/03/02 06:57:01;;;;;;;;;1.00;1.00;;;;;0.91;61.45;100763.56;5093754;28;8838;-63
2022/03/02 06:59:29;;;;;;;;;7.40;7.40;;;;;0.90;61.50;100761.84;5093366;28;8842;-63
2022/03/02 07:01:57;;;;;;;;;0.00;0.00;;;;;0.94;61.66;100757.41;5093222;28;9313;-63
2022/03/02 07:04:25;;;;;;;;;6.00;4.00;;;;;0.97;60.81;100763.41;5093844;28;8834;-63
2022/03/02 07:06:53;;;;;;;;;5.60;5.20;;;;;1.04;60.95;100754.47;5092165;28;8860;-63
2022/03/02 07:09:20;;;;;;;;;5.00;4.60;;;;;1.11;61.05;100756.03;5091342;28;9515;-63
2022/03/02 07:11:48;;;;;;;;;7.00;6.00;;;;;1.18;60.77;100762.81;5092339;28;8840;-63
2022/03/02 07:14:16;;;;;;;;;3.00;3.00;;;;;1.23;60.82;100755.66;5092243;28;8864;-63
2022/03/02 07:16:44;;;;;;;;;3.00;3.00;;;;;1.29;60.79;100750.22;5092445;28;8972;-63
2022/03/02 07:19:13;;;;;;;;;3.20;3.20;;;;;1.37;60.04;100745.63;5092971;28;8885;-64
2022/03/02 07:21:41;;;;;;;;;3.00;3.00;;;;;1.45;60.03;100746.25;5092193;28;8903;-63
2022/03/02 07:24:09;;;;;;;;;5.80;3.80;;;;;1.54;60.19;100747.75;5093121;28;8822;-63
2022/03/02 07:26:37;;;;;;;;;5.20;4.00;;;;;1.62;59.86;100754.50;5092952;28;8881;-64
2022/03/02 07:29:04;;;;;;;;;3.00;1.40;;;;;1.73;59.47;100754.13;5092299;28;9113;-63
2022/03/02 07:31:32;;;;;;;;;3.00;3.00;;;;;1.85;59.87;100753.75;5091688;28;8825;-63
2022/03/02 07:34:06;;;;;;;;;3.60;3.40;;;;;2.04;58.94;100750.50;5093143;28;8834;-63
2022/03/02 07:36:35;;;;;;;;;3.80;3.20;;;;;2.25;59.59;100741.06;5092872;28;8980;-63
2022/03/02 07:39:02;;;;;;;;;7.80;6.80;;;;;2.49;58.85;100748.97;5093788;28;8842;-63
2022/03/02 07:41:31;;;;;;;;;7.80;6.60;;;;;2.78;58.77;100737.44;5093728;28;8875;-63
2022/03/02 07:43:59;;;;;;;;;7.20;3.60;;;;;3.08;58.32;100734.56;5094290;28;8906;-63
2022/03/02 07:46:29;;;;;;;;;6.80;5.80;;;;;3.35;57.71;100733.56;5092798;28;8888;-63
2022/03/02 07:48:57;;;;;;;;;10.80;9.20;;;;;3.50;57.70;100729.47;5090657;28;8847;-64
2022/03/02 07:51:24;;;;;;;;;10.20;9.40;;;;;3.57;57.56;100725.69;5090625;28;8860;-63
2022/03/02 07:53:52;;;;;;;;;7.40;7.00;;;;;3.60;57.68;100729.06;5092610;28;8868;-63
2022/03/02 07:56:20;;;;;;;;;9.80;9.80;;;;;3.81;57.79;100721.16;5093150;28;8962;-63
2022/03/02 07:58:48;;;;;;;;;5.20;4.40;;;;;4.21;57.34;100729.19;5092132;28;8989;-63
2022/03/02 08:01:15;;;;;;;;;6.00;5.60;;;;;4.66;56.92;100718.47;5091536;28;9484;-63
2022/03/02 08:03:44;;;;;;;;;10.40;9.40;;;;;5.04;56.37;100715.88;5091517;28;8914;-63
2022/03/02 08:06:11;;;;;;;;;7.40;7.00;;;;;5.35;56.02;100716.19;5091560;28;9559;-63
2022/03/02 08:08:39;;;;;;;;;7.00;6.40;;;;;5.62;55.83;100719.34;5090706;28;8848;-63
2022/03/02 08:11:07;;;;;;;;;12.20;12.00;;;;;5.84;55.41;100698.91;5091525;28;8830;-63
2022/03/02 08:13:34;;;;;;;;;12.80;12.60;;;;;5.99;55.18;100699.00;5092520;28;8964;-63
2022/03/02 08:16:02;;;;;;;;;12.40;12.00;;;;;6.16;54.98;100699.03;5091788;28;8861;-63
2022/03/02 08:18:30;;;;;;;;;15.00;12.20;;;;;6.38;54.76;100689.09;5090797;28;8834;-63
2022/03/02 08:20:58;;;;;;;;;10.80;9.40;;;;;6.63;54.77;100688.69;5090367;28;8863;-64
2022/03/02 08:23:26;;;;;;;;;13.20;13.20;;;;;6.80;54.18;100691.31;5089512;28;8849;-63
2022/03/02 08:25:54;;;;;;;;;11.60;11.60;;;;;6.94;53.78;100683.50;5089824;28;9262;-63
2022/03/02 08:28:21;;;;;;;;;12.80;11.60;;;;;7.01;53.98;100675.19;5089319;28;8853;-63
2022/03/02 08:30:49;;;;;;;;;16.00;13.40;;;;;7.02;54.16;100681.31;5091671;28;8834;-64
2022/03/02 08:33:17;;;;;;;;;6.20;5.20;;;;;6.98;53.96;100680.63;5091596;28;8846;-64
2022/03/02 08:35:45;;;;;;;;;15.20;13.40;;;;;6.93;54.07;100674.72;5090192;28;9525;-63
2022/03/02 08:38:12;;;;;;;;;15.40;14.60;;;;;6.96;53.92;100677.22;5090637;28;8864;-63
2022/03/02 08:40:41;;;;;;;;;17.00;14.60;;;;;7.11;54.15;100678.16;5089803;28;9507;-63
2022/03/02 08:43:08;;;;;;;;;6.40;6.20;;;;;7.31;53.60;100677.97;5090504;28;9584;-63
2022/03/02 08:45:36;;;;;;;;;15.40;13.80;;;;;7.51;53.37;100673.25;5090904;28;8956;-63
2022/03/02 08:48:05;;;;;;;;;12.40;10.00;;;;;7.76;52.85;100678.91;5090479;28;8862;-63
2022/03/02 08:50:32;;;;;;;;;8.80;7.40;;;;;8.01;52.54;100674.78;5089940;28;8861;-63
2022/03/02 08:53:00;;;;;;;;;12.20;11.20;;;;;8.33;51.96;100675.59;5088489;28;8854;-63
2022/03/02 08:55:28;;;;;;;;;4.00;4.00;;;;;8.60;51.54;100664.19;5089503;28;8954;-63
2022/03/02 08:57:56;;;;;;;;;15.80;14.60;;;;;8.89;51.45;100665.94;5089409;28;8825;-63
2022/03/02 09:00:23;;;;;;;;;11.20;10.00;;;;;9.24;51.26;100661.97;5088690;28;8842;-63
2022/03/02 09:02:51;;;;;;;;;13.00;12.80;;;;;9.66;50.25;100666.34;5087460;28;8850;-63
2022/03/02 09:05:19;;;;;;;;;14.00;14.00;;;;;10.00;49.99;100653.41;5089239;28;8869;-63
2022/03/02 09:07:47;;;;;;;;;15.20;13.00;;;;;10.23;49.61;100655.44;5089305;28;8825;-63
2022/03/02 09:10:15;;;;;;;;;10.00;8.50;;;;;10.33;49.20;100651.19;5090242;28;8842;-63
2022/03/02 09:12:44;;;;;;;;;12.25;10.00;;;;;10.23;49.64;100650.13;5089581;28;9358;-63
2022/03/02 09:15:15;;;;;;;;;11.75;9.75;;;;;10.08;50.06;100653.78;5090182;28;8838;-63
2022/03/02 09:17:42;;;;;;;;;13.75;12.75;;;;;9.97;50.32;100652.75;5090889;28;8850;-63
2022/03/02 09:20:10;;;;;;;;;10.80;10.00;;;;;9.85;50.67;100667.72;5091141;28;8976;-63
2022/03/02 09:22:38;;;;;;;;;10.00;9.75;;;;;9.71;50.58;100662.44;5090329;28;8919;-63
2022/03/02 09:25:07;;;;;;;;;14.50;12.75;;;;;9.61;51.08;100660.47;5090097;28;8871;-63
2022/03/02 09:27:34;;;;;;;;;12.20;11.60;;;;;9.52;50.89;100664.59;5088327;28;9638;-63
2022/03/02 09:30:02;;;;;;;;;10.40;9.00;;;;;9.45;51.18;100657.94;5090374;28;8845;-63
2022/03/02 09:32:30;;;;;;;;;14.60;13.00;;;;;9.37;51.06;100652.28;5090952;28;8830;-63
2022/03/02 09:34:59;;;;;;;;;13.25;12.00;;;;;9.30;51.68;100648.28;5091165;28;8818;-63
2022/03/02 09:37:27;;;;;;;;;10.00;9.40;;;;;9.25;51.44;100653.03;5091481;28;8829;-63
2022/03/02 09:39:55;;;;;;;;;11.20;10.00;;;;;9.23;51.43;100664.69;5089187;28;8845;-63
2022/03/02 09:42:23;;;;;;;;;17.40;15.80;;;;;9.22;51.42;100666.53;5089292;28;8876;-63
2022/03/02 09:44:51;;;;;;;;;14.20;14.20;;;;;9.21;51.71;100662.16;5089549;28;8868;-63
2022/03/02 09:47:18;;;;;;;;;13.20;12.60;;;;;9.23;51.24;100670.88;5089195;28;8864;-63
2022/03/02 09:49:46;;;;;;;;;10.80;10.80;;;;;9.26;51.78;100664.53;5089670;28;8841;-63
2022/03/02 09:52:14;;;;;;;;;13.40;10.80;;;;;9.31;50.96;100673.03;5087487;28;8875;-62
2022/03/02 09:54:42;;;;;;;;;11.60;10.00;;;;;9.40;50.99;100662.69;5090011;28;9543;-63
2022/03/02 09:57:10;;;;;;;;;17.00;12.80;;;;;9.49;51.20;100661.28;5089690;28;8861;-63
2022/03/02 09:59:38;;;;;;;;;11.80;10.40;;;;;9.63;50.81;100659.41;5089536;28;8841;-63
2022/03/02 10:02:07;;;;;;;;;14.60;13.60;;;;;9.78;50.50;100658.44;5089467;28;8837;-63
2022/03/02 10:04:35;;;;;;;;;9.20;7.00;;;;;9.99;50.04;100650.84;5089559;28;9027;-63
2022/03/02 10:09:44;;;;;;;;;7.00;6.75;;;;;10.77;48.54;100641.03;5087045;28;9507;-63
2022/03/02 10:12:14;;;;;;;;;7.00;7.00;;;;;11.34;47.47;100631.59;5090615;28;8988;-63
2022/03/02 10:14:42;;;;;;;;;12.00;12.00;;;;;12.02;46.57;100624.78;5090575;28;8822;-63
2022/03/02 10:17:10;;;;;;;;;7.00;6.00;;;;;12.89;44.83;100618.81;5090514;28;8838;-63
2022/03/02 10:19:38;;;;;;;;;7.50;7.50;;;;;13.97;43.46;100615.31;5089722;28;8830;-63
2022/03/02 10:22:07;;;;;;;;;9.50;8.50;;;;;15.05;42.16;100607.78;5090226;28;9153;-63
2022/03/02 10:24:34;;;;;;;;;12.25;11.00;;;;;16.08;40.58;100608.25;5091423;28;8840;-63
2022/03/02 10:27:02;;;;;;;;;9.50;8.50;;;;;16.96;39.99;100595.31;5093571;28;8889;-63
2022/03/02 10:29:31;;;;;;;;;8.75;7.50;;;;;17.79;38.92;100593.38;5093768;28;8806;-63
2022/03/02 10:31:58;;;;;;;;;9.25;9.00;;;;;18.53;37.94;100586.66;5094104;28;9530;-63
2022/03/02 10:34:26;;;;;;;;;12.50;11.50;;;;;19.19;37.86;100585.09;5093532;28;8877;-63
2022/03/02 10:36:54;;;;;;;;;6.50;6.50;;;;;19.75;36.89;100588.06;5094082;28;8829;-64
2022/03/02 10:39:22;;;;;;;;;14.20;12.60;;;;;20.30;36.34;100583.78;5091641;28;8859;-64
2022/03/02 10:41:50;;;;;;;;;15.00;12.00;;;;;20.80;36.26;100584.44;5091130;28;8830;-63
2022/03/02 10:44:17;;;;;;;;;14.60;10.80;;;;;21.26;35.65;100581.81;5091182;28;9211;-63
2022/03/02 10:46:45;;;;;;;;;12.20;11.80;;;;;21.71;35.57;100581.16;5090431;28;8838;-64
2022/03/02 10:49:13;;;;;;;;;12.80;12.80;;;;;21.98;35.04;100577.94;5090116;28;8992;-64
2022/03/02 10:51:41;;;;;;;;;12.80;10.00;;;;;21.98;34.56;100577.94;5090047;28;9001;-63
2022/03/02 10:54:08;;;;;;;;;16.00;13.00;;;;;22.26;35.15;100585.38;5091551;28;9581;-63
2022/03/02 10:56:42;;;;;;;;;15.00;13.80;;;;;22.46;34.74;100574.91;5092959;28;8834;-64
2022/03/02 10:59:11;;;;;;;;;14.40;12.80;;;;;22.62;33.71;100577.47;5091046;28;8826;-64
2022/03/02 11:01:38;;;;;;;;;14.00;14.00;;;;;22.84;33.12;100574.69;5093227;28;8849;-63
2022/03/02 11:04:07;;;;;;;;;16.00;14.60;;;;;23.02;34.20;100574.34;5092437;28;8826;-63
2022/03/02 11:06:35;;;;;;;;;14.40;14.00;;;;;23.19;33.74;100567.75;5092908;28;8846;-63
2022/03/02 11:09:02;;;;;;;;;16.00;13.20;;;;;23.33;33.60;100561.47;5093584;28;9503;-64
2022/03/02 11:11:30;;;;;;;;;12.60;11.40;;;;;23.23;33.80;100552.75;5092646;28;9004;-63
2022/03/02 11:13:58;;;;;;;;;14.60;14.00;;;;;23.17;34.19;100553.50;5093637;28;8876;-64
2022/03/02 11:16:26;;;;;;;;;13.60;12.60;;;;;23.24;33.34;100555.28;5094367;28;8927;-63
2022/03/02 11:18:54;;;;;;;;;16.20;15.00;;;;;23.36;34.01;100555.66;5092685;28;8837;-63
2022/03/02 11:21:24;;;;;;;;;14.80;13.00;;;;;23.30;34.17;100545.53;5089265;28;9012;-63
2022/03/02 11:23:52;;;;;;;;;14.40;13.00;;;;;23.00;34.90;100552.78;5086937;28;9193;-64
2022/03/02 11:26:23;;;;;;;;;13.00;11.80;;;;;22.93;34.22;100551.84;5087220;28;8880;-63
2022/03/02 11:28:50;;;;;;;;;18.00;16.80;;;;;23.10;33.67;100544.38;5087573;28;8841;-63
2022/03/02 11:31:18;;;;;;;;;9.80;9.80;;;;;23.31;33.81;100544.50;5090622;28;8923;-63
2022/03/02 11:33:46;;;;;;;;;16.40;15.80;;;;;23.34;33.41;100539.53;5090074;28;8845;-63
2022/03/02 11:36:17;;;;;;;;;12.00;11.60;;;;;23.29;33.73;100532.97;5089411;28;8841;-64
2022/03/02 11:38:44;;;;;;;;;12.80;12.80;;;;;23.38;33.50;100529.13;5092594;28;9319;-63
2022/03/02 11:41:13;;;;;;;;;14.40;13.20;;;;;23.58;32.84;100527.50;5092209;28;8842;-63